KPAM/PAM METAR and TAF weather

Enter ICAO airport designator
Station Type Date Time Source
KPAM METAR 2020/10/29 16:30 UTC NOAA

KPAM 291630Z 26016G21KT 10SM SCT006 BKN012 BKN020 BKN028 26/24 A2983 RMK AO2A RAB12E26DZB26 CIG 012V027 BKN012 V SCT SLP104 $


Station Type Date Time Source
KPAM Decoded METAR 2020/10/29 16:30 UTC NOAA

Tyndall Air Force Base, FL, United States (KPAM) 30-04N 085-35W 13M
Oct 29, 2020 - 12:30 PM EDT / 2020.10.29 1630 UTC
Wind: from the W (260 degrees) at 18 MPH (16 KT) gusting to 24 MPH (21 KT):0
Visibility: 10 mile(s):0
Sky conditions: mostly cloudy
Temperature: 78 F (26 C)
Dew Point: 75 F (24 C)
Relative Humidity: 88%
Pressure (altimeter): 29.83 in. Hg (1010 hPa)
ob: KPAM 291630Z 26016G21KT 10SM SCT006 BKN012 BKN020 BKN028 26/24 A2983 RMK AO2A RAB12E26DZB26 CIG 012V027 BKN012 V SCT SLP104
cycle: 16

Station Type Date Time Source
KPAM TAF 2020/10/29 14:52 UTC NOAA

TAF
AMD KPAM 291430Z 2914/3017 23015G25KT 9999 SCT020 BKN030 QNH2982INS
TEMPO 2915/2918 22018G26KT 8000 SHRA BKN015
BECMG 2917/2918 26015G25KT 9999 FEW018 QNH2980INS
BECMG 3003/3004 32012G18KT 9999 SKC QNH2997INS
BECMG 3012/3013 35009KT 9999 SKC QNH3009INS TX30/2919Z TN13/3011Z

Example: see airport list